createdAt,value
2024-02-08T00:02:18.412Z,99394.31
2024-02-08T00:05:20.698Z,99394.56
2024-02-08T00:08:23.822Z,99385.75
2024-02-08T00:11:26.098Z,99386.59
2024-02-08T00:14:28.670Z,99386.22
2024-02-08T00:17:30.729Z,99382.19
2024-02-08T00:20:34.321Z,99389.91
2024-02-08T00:23:36.367Z,99391.16
2024-02-08T00:26:38.499Z,99385.97
2024-02-08T00:29:44.604Z,99387.47
2024-02-08T00:32:46.696Z,99389.31
2024-02-08T00:35:48.895Z,99381.44
2024-02-08T00:38:51.058Z,99387.56
2024-02-08T00:41:53.563Z,99381.91
2024-02-08T00:44:55.275Z,99382.72
2024-02-08T00:47:57.469Z,99379.84
2024-02-08T00:51:00.009Z,99380.19
2024-02-08T00:54:02.241Z,99378.38
2024-02-08T00:57:05.277Z,99386.78
2024-02-08T01:00:08.384Z,99374.22
2024-02-08T01:03:10.999Z,99374.25
2024-02-08T01:06:13.008Z,99383.13
2024-02-08T01:09:16.276Z,99377.91
2024-02-08T01:12:18.020Z,99375.84
2024-02-08T01:15:19.665Z,99373.31
2024-02-08T01:18:21.993Z,99364.81
2024-02-08T01:21:24.201Z,99374.06
2024-02-08T01:24:26.302Z,99360.50
2024-02-08T01:27:28.144Z,99379.97
2024-02-08T01:30:29.877Z,99371.38
2024-02-08T01:33:32.286Z,99360.44
2024-02-08T01:36:35.610Z,99359.75
2024-02-08T01:39:37.700Z,99351.47
2024-02-08T01:42:39.462Z,99347.94
2024-02-08T01:45:41.965Z,99349.00
2024-02-08T01:48:45.839Z,99350.12
2024-02-08T01:51:48.230Z,99346.44
2024-02-08T01:54:50.983Z,99347.44
2024-02-08T01:57:53.155Z,99342.81
2024-02-08T02:00:56.984Z,99332.41
2024-02-08T02:03:59.875Z,99338.81
2024-02-08T02:07:03.301Z,99332.13
2024-02-08T02:10:06.133Z,99333.53
2024-02-08T02:13:09.997Z,99331.22
2024-02-08T02:16:23.749Z,99339.31
2024-02-08T02:19:26.148Z,99333.97
2024-02-08T02:22:28.791Z,99331.44
2024-02-08T02:25:32.280Z,99329.75
2024-02-08T02:28:35.672Z,99338.13
2024-02-08T02:31:38.446Z,99339.34
2024-02-08T02:34:43.926Z,99335.50
2024-02-08T02:37:46.737Z,99335.16
2024-02-08T02:40:49.741Z,99328.78
2024-02-08T02:43:51.996Z,99332.81
2024-02-08T02:46:57.932Z,99342.72
2024-02-08T02:50:00.641Z,99343.41
2024-02-08T02:53:03.465Z,99339.03
2024-02-08T02:56:05.899Z,99344.56
2024-02-08T02:59:08.421Z,99344.53
2024-02-08T03:02:10.844Z,99352.94
2024-02-08T03:05:13.610Z,99348.41
2024-02-08T03:08:16.376Z,99351.09
2024-02-08T03:11:19.387Z,99349.56
2024-02-08T03:14:21.137Z,99350.88
2024-02-08T03:17:23.475Z,99355.72
2024-02-08T03:20:27.635Z,99354.88
2024-02-08T03:23:30.366Z,99365.09
2024-02-08T03:26:33.416Z,99368.44
2024-02-08T03:29:37.379Z,99346.84
2024-02-08T03:32:40.195Z,99365.97
2024-02-08T03:35:42.194Z,99360.22
2024-02-08T03:38:44.159Z,99361.06
2024-02-08T03:41:46.593Z,99359.88
2024-02-08T03:44:48.603Z,99366.41
2024-02-08T03:47:52.045Z,99363.59
2024-02-08T03:50:54.339Z,99370.63
2024-02-08T03:53:56.462Z,99368.25
2024-02-08T03:56:59.521Z,99370.78
2024-02-08T04:00:01.939Z,99374.00
2024-02-08T04:03:04.778Z,99363.28
2024-02-08T04:06:07.364Z,99364.31
2024-02-08T04:09:09.312Z,99354.81
2024-02-08T04:12:11.358Z,99358.13
2024-02-08T04:15:13.301Z,99356.94
2024-02-08T04:18:15.032Z,99358.13
2024-02-08T04:21:17.143Z,99357.66
2024-02-08T04:24:18.920Z,99358.66
2024-02-08T04:27:20.637Z,99355.47
2024-02-08T04:30:22.874Z,99348.59
2024-02-08T04:33:28.003Z,99336.31
2024-02-08T04:36:29.861Z,99324.09
2024-02-08T04:39:31.590Z,99341.03
2024-02-08T04:42:33.258Z,99338.87
2024-02-08T04:45:35.074Z,99354.28
2024-02-08T04:48:37.110Z,99351.94
2024-02-08T04:51:45.726Z,99342.06
2024-02-08T04:54:48.394Z,99348.44
2024-02-08T04:57:50.338Z,99351.78
2024-02-08T05:00:52.379Z,99355.97
2024-02-08T05:03:54.251Z,99365.88
2024-02-08T05:06:56.415Z,99355.47
2024-02-08T05:09:59.725Z,99349.09
2024-02-08T05:13:01.975Z,99362.84
2024-02-08T05:16:04.318Z,99369.88
2024-02-08T05:19:06.963Z,99386.81
2024-02-08T05:22:09.443Z,99374.59
2024-02-08T05:25:11.231Z,99381.78
2024-02-08T05:28:14.074Z,99375.09
2024-02-08T05:31:16.615Z,99383.63
2024-02-08T05:34:19.402Z,99375.28
2024-02-08T05:37:21.708Z,99378.63
2024-02-08T05:40:24.031Z,99384.81
2024-02-08T05:43:26.281Z,99373.56
2024-02-08T05:46:28.104Z,99385.81
2024-02-08T05:49:30.453Z,99386.13
2024-02-08T05:52:32.355Z,99387.31
2024-02-08T05:55:35.197Z,99388.63
2024-02-08T05:58:37.432Z,99387.81
2024-02-08T06:01:39.209Z,99390.13
2024-02-08T06:04:42.117Z,99390.00
2024-02-08T06:07:44.768Z,99388.50
2024-02-08T06:10:46.848Z,99375.44
2024-02-08T06:13:49.598Z,99393.34
2024-02-08T06:16:52.282Z,99397.69
2024-02-08T06:19:54.731Z,99397.53
2024-02-08T06:22:57.324Z,99391.50
2024-02-08T06:26:02.767Z,99399.53
2024-02-08T06:29:05.035Z,99393.19
2024-02-08T06:32:08.234Z,99403.91
2024-02-08T06:35:10.181Z,99406.56
2024-02-08T06:38:12.399Z,99411.25
2024-02-08T06:41:14.373Z,99413.06
2024-02-08T06:44:16.555Z,99410.56
2024-02-08T06:47:19.179Z,99419.25
2024-02-08T06:50:21.421Z,99417.62
2024-02-08T06:53:24.484Z,99417.28
2024-02-08T06:56:26.649Z,99422.16
2024-02-08T06:59:28.926Z,99434.72
2024-02-08T07:02:31.431Z,99435.22
2024-02-08T07:05:33.713Z,99451.63
2024-02-08T07:08:35.816Z,99456.06
2024-02-08T07:11:40.235Z,99448.38
2024-02-08T07:14:42.378Z,99448.25
2024-02-08T07:17:44.670Z,99458.03
2024-02-08T07:20:48.017Z,99450.00
2024-02-08T07:23:51.057Z,99452.31
2024-02-08T07:26:53.412Z,99459.56
2024-02-08T07:29:55.714Z,99454.56
2024-02-08T07:32:58.333Z,99454.06
2024-02-08T07:36:00.871Z,99453.25
2024-02-08T07:39:02.960Z,99453.75
2024-02-08T07:42:05.934Z,99466.84
2024-02-08T07:45:09.142Z,99459.69
2024-02-08T07:48:14.274Z,99461.00
2024-02-08T07:51:16.466Z,99453.94
2024-02-08T07:54:18.937Z,99461.44
2024-02-08T07:57:21.171Z,99459.87
2024-02-08T08:00:23.738Z,99461.97
2024-02-08T08:03:25.902Z,99463.84
2024-02-08T08:06:29.366Z,99465.25
2024-02-08T08:09:31.907Z,99458.50
2024-02-08T08:12:34.042Z,99445.34
2024-02-08T08:15:36.093Z,99459.59
2024-02-08T08:18:38.548Z,99456.88
2024-02-08T08:21:44.885Z,99454.13
2024-02-08T08:24:46.967Z,99446.28
2024-02-08T08:27:49.125Z,99444.97
2024-02-08T08:31:05.726Z,99453.69
2024-02-08T08:34:08.113Z,99448.78
2024-02-08T08:37:09.861Z,99449.50
2024-02-08T08:40:16.574Z,99450.75
2024-02-08T08:43:19.517Z,99449.91
2024-02-08T08:46:21.905Z,99443.69
2024-02-08T08:49:23.638Z,99450.91
2024-02-08T08:52:25.789Z,99453.09
2024-02-08T08:55:28.332Z,99456.25
2024-02-08T08:58:30.947Z,99450.84
2024-02-08T09:01:33.130Z,99454.31
2024-02-08T09:04:35.533Z,99453.63
2024-02-08T09:07:37.620Z,99453.19
2024-02-08T09:10:39.934Z,99450.28
2024-02-08T09:13:43.274Z,99452.13
2024-02-08T09:16:45.247Z,99455.19
2024-02-08T09:19:49.381Z,99457.59
2024-02-08T09:22:53.360Z,99449.53
2024-02-08T09:25:55.622Z,99449.34
2024-02-08T09:28:58.181Z,99446.00
2024-02-08T09:32:02.271Z,99442.22
2024-02-08T09:35:04.905Z,99443.56
2024-02-08T09:38:06.881Z,99455.25
2024-02-08T09:41:09.642Z,99455.59
2024-02-08T09:44:12.540Z,99451.66
2024-02-08T09:47:15.640Z,99456.06
2024-02-08T09:50:18.613Z,99453.72
2024-02-08T09:53:22.495Z,99443.38
2024-02-08T09:56:26.105Z,99440.50
2024-02-08T09:59:29.113Z,99444.66
2024-02-08T10:02:31.898Z,99440.25
2024-02-08T10:05:37.159Z,99439.09
2024-02-08T10:08:40.863Z,99453.28
2024-02-08T10:11:43.402Z,99441.38
2024-02-08T10:14:45.834Z,99438.22
2024-02-08T10:17:51.552Z,99438.31
2024-02-08T10:20:53.293Z,99443.72
2024-02-08T10:24:01.746Z,99436.31
2024-02-08T10:27:07.637Z,99439.63
2024-02-08T10:30:10.702Z,99434.09
2024-02-08T10:33:13.975Z,99417.84
2024-02-08T10:36:17.110Z,99404.75
2024-02-08T10:39:19.152Z,99403.16
2024-02-08T10:42:22.333Z,99404.09
2024-02-08T10:45:28.029Z,99386.97
2024-02-08T10:48:30.914Z,99388.06
2024-02-08T10:51:34.588Z,99392.53
2024-02-08T10:54:40.495Z,99387.66
2024-02-08T10:57:42.991Z,99377.91
2024-02-08T11:00:46.975Z,99378.66
2024-02-08T11:03:50.898Z,99365.56
2024-02-08T11:06:56.715Z,99368.34
2024-02-08T11:09:58.795Z,99368.47
2024-02-08T11:13:06.647Z,99373.19
2024-02-08T11:16:18.400Z,99373.47
2024-02-08T11:19:21.176Z,99371.03
2024-02-08T11:22:28.371Z,99375.34
2024-02-08T11:25:30.427Z,99365.56
2024-02-08T11:28:32.430Z,99357.09
2024-02-08T11:31:41.479Z,99366.75
2024-02-08T11:34:43.773Z,99364.97
2024-02-08T11:37:46.045Z,99367.69
2024-02-08T11:40:48.414Z,99362.31
2024-02-08T11:44:05.088Z,99354.81
2024-02-08T11:47:19.515Z,99356.16
2024-02-08T11:50:21.858Z,99349.53
2024-02-08T11:53:33.092Z,99343.50
2024-02-08T11:56:47.727Z,99334.91
2024-02-08T11:59:50.636Z,99341.16
2024-02-08T12:02:56.114Z,99334.28
2024-02-08T12:05:58.143Z,99327.97
2024-02-08T12:09:04.998Z,99317.16
2024-02-08T12:12:10.612Z,99318.41
2024-02-08T12:15:16.267Z,99308.84
2024-02-08T12:18:19.966Z,99312.94
2024-02-08T12:21:22.143Z,99311.53
2024-02-08T12:24:25.403Z,99308.75
2024-02-08T12:27:28.622Z,99307.72
2024-02-08T12:30:35.239Z,99306.59
2024-02-08T12:33:37.587Z,99305.50
2024-02-08T12:36:39.686Z,99304.72
2024-02-08T12:39:44.158Z,99300.16
2024-02-08T12:42:48.280Z,99288.16
2024-02-08T12:45:54.922Z,99296.47
2024-02-08T12:48:57.240Z,99301.09
2024-02-08T12:52:03.990Z,99297.56
2024-02-08T12:55:06.994Z,99304.69
2024-02-08T12:58:08.829Z,99292.56
2024-02-08T13:01:10.930Z,99302.03
2024-02-08T13:04:16.667Z,99306.06
2024-02-08T13:07:21.011Z,99313.19
2024-02-08T13:10:23.647Z,99310.94
2024-02-08T13:13:25.982Z,99318.22
2024-02-08T13:16:27.971Z,99305.97
2024-02-08T13:19:29.976Z,99308.13
2024-02-08T13:22:32.544Z,99304.44
2024-02-08T13:25:34.642Z,99290.06
2024-02-08T13:28:36.900Z,99286.41
2024-02-08T13:31:38.914Z,99303.22
2024-02-08T13:34:47.403Z,99296.09
2024-02-08T13:37:52.185Z,99283.91
2024-02-08T13:40:57.021Z,99294.88
2024-02-08T13:43:58.962Z,99292.31
2024-02-08T13:47:00.881Z,99273.44
2024-02-08T13:50:03.925Z,99264.09
2024-02-08T13:53:06.514Z,99296.31
2024-02-08T13:56:09.026Z,99290.97
2024-02-08T13:59:11.171Z,99291.25
2024-02-08T14:02:14.586Z,99292.13
2024-02-08T14:05:18.593Z,99287.19
2024-02-08T14:08:21.176Z,99295.94
2024-02-08T14:11:23.851Z,99294.28
2024-02-08T14:14:26.478Z,99284.87
2024-02-08T14:17:32.404Z,99279.69
2024-02-08T14:20:34.399Z,99276.75
2024-02-08T14:23:37.110Z,99273.41
2024-02-08T14:26:39.852Z,99266.97
2024-02-08T14:29:41.673Z,99270.47
2024-02-08T14:32:44.158Z,99265.28
2024-02-08T14:35:47.307Z,99272.78
2024-02-08T14:38:49.575Z,99272.56
2024-02-08T14:41:52.008Z,99264.88
2024-02-08T14:44:53.989Z,99257.62
2024-02-08T14:47:55.870Z,99254.50
2024-02-08T14:50:58.652Z,99256.78
2024-02-08T14:54:00.939Z,99261.81
2024-02-08T14:57:02.973Z,99260.34
2024-02-08T15:00:08.227Z,99247.25
2024-02-08T15:03:11.675Z,99248.28
2024-02-08T15:06:14.445Z,99237.69
2024-02-08T15:09:16.640Z,99233.28
2024-02-08T15:12:18.495Z,99241.81
2024-02-08T15:15:21.160Z,99254.31
2024-02-08T15:18:23.005Z,99252.84
2024-02-08T15:21:25.904Z,99235.16
2024-02-08T15:24:28.214Z,99227.47
2024-02-08T15:27:30.032Z,99213.97
2024-02-08T15:30:32.311Z,99206.47
2024-02-08T15:33:34.652Z,99220.41
2024-02-08T15:36:36.634Z,99211.88
2024-02-08T15:39:38.991Z,99198.16
2024-02-08T15:42:43.165Z,99213.72
2024-02-08T15:45:44.950Z,99211.84
2024-02-08T15:48:48.120Z,99207.28
2024-02-08T15:51:50.215Z,99199.00
2024-02-08T15:54:53.852Z,99187.94
2024-02-08T15:57:56.372Z,99191.88
2024-02-08T16:01:02.701Z,99197.69
2024-02-08T16:04:05.091Z,99201.03
2024-02-08T16:07:07.013Z,99190.19
2024-02-08T16:10:09.600Z,99186.84
2024-02-08T16:13:13.130Z,99186.22
2024-02-08T16:16:15.320Z,99195.13
2024-02-08T16:19:17.285Z,99196.41
2024-02-08T16:22:19.188Z,99203.25
2024-02-08T16:25:22.076Z,99209.09
2024-02-08T16:28:24.005Z,99204.31
2024-02-08T16:34:42.848Z,99186.41
2024-02-08T16:37:48.549Z,99190.38
2024-02-08T16:40:50.791Z,99171.88
2024-02-08T16:43:52.735Z,99175.81
2024-02-08T16:46:54.746Z,99177.66
2024-02-08T16:49:57.513Z,99177.81
2024-02-08T16:52:59.443Z,99162.03
2024-02-08T16:56:03.228Z,99166.59
2024-02-08T16:59:06.895Z,99148.28
2024-02-08T17:02:09.512Z,99152.63
2024-02-08T17:05:11.948Z,99151.78
2024-02-08T17:08:15.042Z,99162.13
2024-02-08T17:11:30.334Z,99161.66
2024-02-08T17:14:32.878Z,99151.47
2024-02-08T17:17:34.948Z,99158.66
2024-02-08T17:20:38.160Z,99152.28
2024-02-08T17:23:41.201Z,99158.31
2024-02-08T17:26:43.046Z,99165.41
2024-02-08T17:29:45.415Z,99163.91
2024-02-08T17:32:47.570Z,99160.13
2024-02-08T17:35:50.062Z,99167.56
2024-02-08T17:38:53.243Z,99173.84
2024-02-08T17:42:11.842Z,99169.50
2024-02-08T17:45:14.141Z,99171.22
2024-02-08T17:48:16.762Z,99168.91
2024-02-08T17:51:19.439Z,99173.28
2024-02-08T17:54:21.229Z,99179.88
2024-02-08T17:57:23.146Z,99179.72
2024-02-08T18:00:24.906Z,99180.97
2024-02-08T18:03:26.695Z,99175.78
2024-02-08T18:06:30.007Z,99172.47
2024-02-08T18:09:32.206Z,99179.34
2024-02-08T18:12:34.007Z,99175.81
2024-02-08T18:15:36.886Z,99170.87
2024-02-08T18:18:41.529Z,99175.25
2024-02-08T18:21:45.397Z,99176.28
2024-02-08T18:24:47.953Z,99159.88
2024-02-08T18:27:49.649Z,99142.63
2024-02-08T18:30:52.818Z,99154.31
2024-02-08T18:33:54.727Z,99155.97
2024-02-08T18:36:56.530Z,99150.16
2024-02-08T18:39:59.060Z,99140.41
2024-02-08T18:43:00.896Z,99117.75
2024-02-08T18:46:03.485Z,99134.34
2024-02-08T18:49:05.974Z,99124.63
2024-02-08T18:52:25.990Z,99115.25
2024-02-08T18:55:27.890Z,99116.72
2024-02-08T18:58:30.427Z,99106.31
2024-02-08T19:01:33.181Z,99115.59
2024-02-08T19:04:35.425Z,99110.63
2024-02-08T19:07:37.333Z,99122.19
2024-02-08T19:10:39.626Z,99118.88
2024-02-08T19:13:45.257Z,99119.66
2024-02-08T19:16:51.177Z,99122.97
2024-02-08T19:19:53.670Z,99103.19
2024-02-08T19:22:58.653Z,99097.16
2024-02-08T19:26:00.505Z,99106.34
2024-02-08T19:29:02.721Z,99098.62
2024-02-08T19:32:05.691Z,99097.72
2024-02-08T19:35:08.184Z,99091.47
2024-02-08T19:38:10.046Z,99086.06
2024-02-08T19:41:12.580Z,99082.50
2024-02-08T19:44:14.704Z,99077.13
2024-02-08T19:47:16.584Z,99081.66
2024-02-08T19:50:21.969Z,99070.47
2024-02-08T19:53:23.806Z,99075.03
2024-02-08T19:56:26.987Z,99070.63
2024-02-08T19:59:29.856Z,99073.03
2024-02-08T20:02:32.443Z,99061.44
2024-02-08T20:05:37.324Z,99068.59
2024-02-08T20:08:39.142Z,99058.44
2024-02-08T20:11:40.825Z,99045.72
2024-02-08T20:14:42.875Z,99065.66
2024-02-08T20:17:49.448Z,99072.59
2024-02-08T20:20:51.620Z,99081.69
2024-02-08T20:23:54.368Z,99076.31
2024-02-08T20:26:56.079Z,99078.37
2024-02-08T20:29:58.950Z,99075.50
2024-02-08T20:33:02.861Z,99067.81
2024-02-08T20:36:06.444Z,99066.16
2024-02-08T20:39:08.205Z,99066.56
2024-02-08T20:42:10.012Z,99071.47
2024-02-08T20:45:12.035Z,99060.19
2024-02-08T20:48:14.019Z,99060.84
2024-02-08T20:51:16.087Z,99063.09
2024-02-08T20:54:17.971Z,99073.66
2024-02-08T20:57:19.913Z,99074.06
2024-02-08T21:00:22.186Z,99081.50
2024-02-08T21:03:23.992Z,99084.81
2024-02-08T21:06:26.297Z,99075.72
2024-02-08T21:09:28.322Z,99099.75
2024-02-08T21:12:30.051Z,99100.97
2024-02-08T21:15:32.068Z,99106.75
2024-02-08T21:18:34.149Z,99103.03
2024-02-08T21:21:37.059Z,99125.37
2024-02-08T21:24:39.947Z,99122.50
2024-02-08T21:27:45.195Z,99125.63
2024-02-08T21:30:47.181Z,99124.03
2024-02-08T21:33:50.429Z,99129.41
2024-02-08T21:36:55.197Z,99130.66
2024-02-08T21:39:57.023Z,99118.78
2024-02-08T21:42:59.280Z,99124.16
2024-02-08T21:46:01.154Z,99128.62
2024-02-08T21:49:03.699Z,99110.72
2024-02-08T21:52:05.630Z,99102.03
2024-02-08T21:55:08.680Z,99111.63
2024-02-08T21:58:12.095Z,99097.19
2024-02-08T22:04:33.771Z,99075.66
2024-02-08T22:07:37.082Z,99103.22
2024-02-08T22:10:38.980Z,99104.69
2024-02-08T22:13:41.044Z,99110.47
2024-02-08T22:16:43.104Z,99118.78
2024-02-08T22:19:45.513Z,99113.94
2024-02-08T22:22:47.494Z,99117.44
2024-02-08T22:26:02.946Z,99123.50
2024-02-08T22:29:04.661Z,99122.69
2024-02-08T22:32:07.510Z,99105.72
2024-02-08T22:35:09.508Z,99106.28
2024-02-08T22:38:11.467Z,99100.16
2024-02-08T22:41:13.174Z,99094.78
2024-02-08T22:44:15.479Z,99085.34
2024-02-08T22:47:17.140Z,99082.22
2024-02-08T22:50:18.886Z,99073.03
2024-02-08T22:53:21.400Z,99071.37
2024-02-08T22:56:23.476Z,99068.16
2024-02-08T22:59:25.300Z,99066.94
2024-02-08T23:02:30.120Z,99070.34
2024-02-08T23:05:31.886Z,99055.16
2024-02-08T23:08:33.826Z,99060.53
2024-02-08T23:11:37.148Z,99058.13
2024-02-08T23:14:39.018Z,99059.59
2024-02-08T23:17:40.765Z,99057.31
2024-02-08T23:20:43.616Z,99062.22
2024-02-08T23:23:45.222Z,99052.69
2024-02-08T23:26:47.293Z,99052.69
2024-02-08T23:29:49.487Z,99049.63
2024-02-08T23:32:52.088Z,99046.47
2024-02-08T23:35:54.301Z,99051.09
2024-02-08T23:38:56.587Z,99053.34
2024-02-08T23:41:58.814Z,99041.09
2024-02-08T23:45:00.772Z,99047.69
2024-02-08T23:48:03.248Z,99043.72
2024-02-08T23:51:05.322Z,99065.00
2024-02-08T23:54:07.508Z,99053.25
2024-02-08T23:57:09.221Z,99047.44
